sensor_id;sensor_type;location;lat;lon;timestamp;P1;durP1;ratioP1;P2;durP2;ratioP2
10403;SDS011;5248;47.374;8.486;2023-03-01T00:01:30;21.87;;;19.33;;
10403;SDS011;5248;47.374;8.486;2023-03-01T00:03:57;22.10;;;19.80;;
10403;SDS011;5248;47.374;8.486;2023-03-01T00:06:27;24.17;;;19.77;;
10403;SDS011;5248;47.374;8.486;2023-03-01T00:08:54;21.97;;;19.33;;
10403;SDS011;5248;47.374;8.486;2023-03-01T00:11:21;22.03;;;19.67;;
10403;SDS011;5248;47.374;8.486;2023-03-01T00:13:50;23.60;;;20.60;;
10403;SDS011;5248;47.374;8.486;2023-03-01T00:16:22;22.00;;;19.63;;
10403;SDS011;5248;47.374;8.486;2023-03-01T00:18:50;23.57;;;19.63;;
10403;SDS011;5248;47.374;8.486;2023-03-01T00:21:19;22.13;;;19.63;;
10403;SDS011;5248;47.374;8.486;2023-03-01T00:23:47;24.40;;;20.30;;
10403;SDS011;5248;47.374;8.486;2023-03-01T00:26:15;23.80;;;19.67;;
10403;SDS011;5248;47.374;8.486;2023-03-01T00:28:46;23.53;;;20.10;;
10403;SDS011;5248;47.374;8.486;2023-03-01T00:31:14;22.07;;;19.50;;
10403;SDS011;5248;47.374;8.486;2023-03-01T00:33:44;23.27;;;20.30;;
10403;SDS011;5248;47.374;8.486;2023-03-01T00:36:11;22.50;;;19.57;;
10403;SDS011;5248;47.374;8.486;2023-03-01T00:38:40;23.83;;;21.03;;
10403;SDS011;5248;47.374;8.486;2023-03-01T00:41:08;22.60;;;19.80;;
10403;SDS011;5248;47.374;8.486;2023-03-01T00:43:36;23.80;;;20.33;;
10403;SDS011;5248;47.374;8.486;2023-03-01T00:46:02;22.90;;;19.73;;
10403;SDS011;5248;47.374;8.486;2023-03-01T00:48:30;22.57;;;19.87;;
10403;SDS011;5248;47.374;8.486;2023-03-01T00:50:58;24.43;;;21.63;;
10403;SDS011;5248;47.374;8.486;2023-03-01T00:53:30;25.20;;;20.17;;
10403;SDS011;5248;47.374;8.486;2023-03-01T00:55:58;22.17;;;19.63;;
10403;SDS011;5248;47.374;8.486;2023-03-01T00:58:24;23.43;;;19.83;;
10403;SDS011;5248;47.374;8.486;2023-03-01T01:00:51;23.60;;;21.00;;
10403;SDS011;5248;47.374;8.486;2023-03-01T01:03:18;23.83;;;20.30;;
10403;SDS011;5248;47.374;8.486;2023-03-01T01:05:44;23.83;;;19.80;;
10403;SDS011;5248;47.374;8.486;2023-03-01T01:08:13;25.27;;;20.03;;
10403;SDS011;5248;47.374;8.486;2023-03-01T01:10:39;23.27;;;19.90;;
10403;SDS011;5248;47.374;8.486;2023-03-01T01:13:06;24.93;;;20.83;;
10403;SDS011;5248;47.374;8.486;2023-03-01T01:15:33;22.37;;;19.23;;
10403;SDS011;5248;47.374;8.486;2023-03-01T01:17:59;22.37;;;19.63;;
10403;SDS011;5248;47.374;8.486;2023-03-01T01:20:26;23.23;;;20.33;;
10403;SDS011;5248;47.374;8.486;2023-03-01T01:22:52;22.33;;;19.07;;
10403;SDS011;5248;47.374;8.486;2023-03-01T01:25:22;25.47;;;21.33;;
10403;SDS011;5248;47.374;8.486;2023-03-01T01:27:49;21.07;;;18.87;;
10403;SDS011;5248;47.374;8.486;2023-03-01T01:30:16;22.23;;;19.50;;
10403;SDS011;5248;47.374;8.486;2023-03-01T01:32:44;26.17;;;21.20;;
10403;SDS011;5248;47.374;8.486;2023-03-01T01:35:11;22.97;;;20.50;;
10403;SDS011;5248;47.374;8.486;2023-03-01T01:37:38;22.63;;;19.30;;
10403;SDS011;5248;47.374;8.486;2023-03-01T01:40:04;24.77;;;21.27;;
10403;SDS011;5248;47.374;8.486;2023-03-01T01:42:33;21.80;;;19.47;;
10403;SDS011;5248;47.374;8.486;2023-03-01T01:47:51;22.10;;;19.83;;
10403;SDS011;5248;47.374;8.486;2023-03-01T01:50:17;24.73;;;20.00;;
10403;SDS011;5248;47.374;8.486;2023-03-01T01:52:44;24.20;;;21.50;;
10403;SDS011;5248;47.374;8.486;2023-03-01T01:55:13;24.87;;;19.90;;
10403;SDS011;5248;47.374;8.486;2023-03-01T01:57:50;21.60;;;19.30;;
10403;SDS011;5248;47.374;8.486;2023-03-01T02:00:19;27.47;;;21.07;;
10403;SDS011;5248;47.374;8.486;2023-03-01T02:02:48;21.47;;;19.07;;
10403;SDS011;5248;47.374;8.486;2023-03-01T02:05:18;21.80;;;19.23;;
10403;SDS011;5248;47.374;8.486;2023-03-01T02:07:47;24.93;;;20.50;;
10403;SDS011;5248;47.374;8.486;2023-03-01T02:10:15;21.77;;;18.80;;
10403;SDS011;5248;47.374;8.486;2023-03-01T02:12:41;22.97;;;18.53;;
10403;SDS011;5248;47.374;8.486;2023-03-01T02:15:10;25.13;;;20.67;;
10403;SDS011;5248;47.374;8.486;2023-03-01T02:17:36;23.60;;;20.77;;
10403;SDS011;5248;47.374;8.486;2023-03-01T02:20:06;23.43;;;20.40;;
10403;SDS011;5248;47.374;8.486;2023-03-01T02:22:37;22.90;;;19.57;;
10403;SDS011;5248;47.374;8.486;2023-03-01T02:25:07;22.83;;;19.70;;
10403;SDS011;5248;47.374;8.486;2023-03-01T02:27:46;24.77;;;20.43;;
10403;SDS011;5248;47.374;8.486;2023-03-01T02:30:17;24.30;;;20.97;;
10403;SDS011;5248;47.374;8.486;2023-03-01T02:32:44;22.37;;;19.20;;
10403;SDS011;5248;47.374;8.486;2023-03-01T02:35:12;21.87;;;18.43;;
10403;SDS011;5248;47.374;8.486;2023-03-01T02:37:40;22.93;;;20.37;;
10403;SDS011;5248;47.374;8.486;2023-03-01T02:40:08;23.97;;;20.80;;
10403;SDS011;5248;47.374;8.486;2023-03-01T02:42:40;24.33;;;20.37;;
10403;SDS011;5248;47.374;8.486;2023-03-01T02:45:10;22.37;;;19.97;;
10403;SDS011;5248;47.374;8.486;2023-03-01T02:47:38;24.63;;;20.10;;
10403;SDS011;5248;47.374;8.486;2023-03-01T02:50:09;23.57;;;19.97;;
10403;SDS011;5248;47.374;8.486;2023-03-01T02:52:43;25.50;;;21.03;;
10403;SDS011;5248;47.374;8.486;2023-03-01T02:55:13;23.63;;;20.00;;
10403;SDS011;5248;47.374;8.486;2023-03-01T02:57:41;21.73;;;19.07;;
10403;SDS011;5248;47.374;8.486;2023-03-01T03:00:11;24.27;;;21.30;;
10403;SDS011;5248;47.374;8.486;2023-03-01T03:02:46;23.33;;;19.50;;
10403;SDS011;5248;47.374;8.486;2023-03-01T03:05:15;22.07;;;19.77;;
10403;SDS011;5248;47.374;8.486;2023-03-01T03:07:44;22.43;;;20.03;;
10403;SDS011;5248;47.374;8.486;2023-03-01T03:10:14;23.80;;;19.70;;
10403;SDS011;5248;47.374;8.486;2023-03-01T03:12:41;22.77;;;20.00;;
10403;SDS011;5248;47.374;8.486;2023-03-01T03:15:09;24.77;;;19.63;;
10403;SDS011;5248;47.374;8.486;2023-03-01T03:17:37;23.47;;;19.47;;
10403;SDS011;5248;47.374;8.486;2023-03-01T03:20:08;20.90;;;18.70;;
10403;SDS011;5248;47.374;8.486;2023-03-01T03:22:37;23.00;;;19.63;;
10403;SDS011;5248;47.374;8.486;2023-03-01T03:25:05;23.00;;;19.67;;
10403;SDS011;5248;47.374;8.486;2023-03-01T03:27:36;22.23;;;19.70;;
10403;SDS011;5248;47.374;8.486;2023-03-01T03:30:04;23.43;;;20.40;;
10403;SDS011;5248;47.374;8.486;2023-03-01T03:32:34;24.70;;;21.30;;
10403;SDS011;5248;47.374;8.486;2023-03-01T03:35:00;21.53;;;19.00;;
10403;SDS011;5248;47.374;8.486;2023-03-01T03:37:35;22.67;;;19.77;;
10403;SDS011;5248;47.374;8.486;2023-03-01T03:40:23;25.67;;;19.97;;
10403;SDS011;5248;47.374;8.486;2023-03-01T03:42:49;23.33;;;19.17;;
10403;SDS011;5248;47.374;8.486;2023-03-01T03:45:18;22.07;;;18.93;;
10403;SDS011;5248;47.374;8.486;2023-03-01T03:47:44;22.10;;;19.70;;
10403;SDS011;5248;47.374;8.486;2023-03-01T03:50:12;21.93;;;19.23;;
10403;SDS011;5248;47.374;8.486;2023-03-01T03:52:40;22.73;;;18.83;;
10403;SDS011;5248;47.374;8.486;2023-03-01T03:55:08;21.50;;;19.20;;
10403;SDS011;5248;47.374;8.486;2023-03-01T03:57:36;23.13;;;19.90;;
10403;SDS011;5248;47.374;8.486;2023-03-01T04:00:03;22.00;;;19.57;;
10403;SDS011;5248;47.374;8.486;2023-03-01T04:02:37;22.50;;;20.03;;
10403;SDS011;5248;47.374;8.486;2023-03-01T04:05:05;23.17;;;19.83;;
10403;SDS011;5248;47.374;8.486;2023-03-01T04:07:34;22.63;;;19.53;;
10403;SDS011;5248;47.374;8.486;2023-03-01T04:10:04;23.10;;;19.80;;
10403;SDS011;5248;47.374;8.486;2023-03-01T04:12:32;22.90;;;19.33;;
10403;SDS011;5248;47.374;8.486;2023-03-01T04:15:00;23.80;;;20.07;;
10403;SDS011;5248;47.374;8.486;2023-03-01T04:17:37;25.37;;;20.67;;
10403;SDS011;5248;47.374;8.486;2023-03-01T04:20:04;23.73;;;19.67;;
10403;SDS011;5248;47.374;8.486;2023-03-01T04:22:36;26.47;;;20.33;;
10403;SDS011;5248;47.374;8.486;2023-03-01T04:25:04;22.80;;;20.27;;
10403;SDS011;5248;47.374;8.486;2023-03-01T04:27:31;25.20;;;21.43;;
10403;SDS011;5248;47.374;8.486;2023-03-01T04:29:58;23.50;;;20.00;;
10403;SDS011;5248;47.374;8.486;2023-03-01T04:32:25;22.53;;;20.03;;
10403;SDS011;5248;47.374;8.486;2023-03-01T04:34:51;24.73;;;20.77;;
10403;SDS011;5248;47.374;8.486;2023-03-01T04:37:18;25.20;;;20.70;;
10403;SDS011;5248;47.374;8.486;2023-03-01T04:39:45;25.00;;;21.20;;
10403;SDS011;5248;47.374;8.486;2023-03-01T04:42:14;25.43;;;21.83;;
10403;SDS011;5248;47.374;8.486;2023-03-01T04:44:41;24.87;;;20.70;;
10403;SDS011;5248;47.374;8.486;2023-03-01T04:47:08;25.23;;;20.93;;
10403;SDS011;5248;47.374;8.486;2023-03-01T04:49:34;26.37;;;21.17;;
10403;SDS011;5248;47.374;8.486;2023-03-01T04:52:01;25.17;;;20.53;;
10403;SDS011;5248;47.374;8.486;2023-03-01T04:54:28;24.03;;;20.40;;
10403;SDS011;5248;47.374;8.486;2023-03-01T04:56:55;25.53;;;20.40;;
10403;SDS011;5248;47.374;8.486;2023-03-01T04:59:23;23.97;;;19.43;;
10403;SDS011;5248;47.374;8.486;2023-03-01T05:01:50;27.10;;;20.77;;
10403;SDS011;5248;47.374;8.486;2023-03-01T05:04:16;24.13;;;20.03;;
10403;SDS011;5248;47.374;8.486;2023-03-01T05:06:43;24.57;;;20.37;;
10403;SDS011;5248;47.374;8.486;2023-03-01T05:09:10;26.07;;;19.80;;
10403;SDS011;5248;47.374;8.486;2023-03-01T05:11:38;28.03;;;21.37;;
10403;SDS011;5248;47.374;8.486;2023-03-01T05:14:06;27.30;;;20.93;;
10403;SDS011;5248;47.374;8.486;2023-03-01T05:16:35;25.77;;;21.50;;
10403;SDS011;5248;47.374;8.486;2023-03-01T05:19:03;28.03;;;21.97;;
10403;SDS011;5248;47.374;8.486;2023-03-01T05:21:36;28.17;;;22.00;;
10403;SDS011;5248;47.374;8.486;2023-03-01T05:24:23;27.57;;;22.23;;
10403;SDS011;5248;47.374;8.486;2023-03-01T05:26:54;27.20;;;22.23;;
10403;SDS011;5248;47.374;8.486;2023-03-01T05:29:20;26.10;;;21.33;;
10403;SDS011;5248;47.374;8.486;2023-03-01T05:31:51;31.07;;;23.77;;
10403;SDS011;5248;47.374;8.486;2023-03-01T05:34:18;25.97;;;21.23;;
10403;SDS011;5248;47.374;8.486;2023-03-01T05:36:48;25.90;;;21.17;;
10403;SDS011;5248;47.374;8.486;2023-03-01T05:39:16;27.10;;;21.13;;
10403;SDS011;5248;47.374;8.486;2023-03-01T05:41:44;23.60;;;20.93;;
10403;SDS011;5248;47.374;8.486;2023-03-01T05:44:11;25.07;;;21.07;;
10403;SDS011;5248;47.374;8.486;2023-03-01T05:46:38;26.70;;;21.10;;
10403;SDS011;5248;47.374;8.486;2023-03-01T05:49:05;28.80;;;22.97;;
10403;SDS011;5248;47.374;8.486;2023-03-01T05:51:32;27.17;;;22.53;;
10403;SDS011;5248;47.374;8.486;2023-03-01T05:53:59;25.90;;;21.13;;
10403;SDS011;5248;47.374;8.486;2023-03-01T05:56:26;25.70;;;21.40;;
10403;SDS011;5248;47.374;8.486;2023-03-01T05:58:52;26.73;;;21.10;;
10403;SDS011;5248;47.374;8.486;2023-03-01T06:01:20;26.30;;;21.43;;
10403;SDS011;5248;47.374;8.486;2023-03-01T06:03:47;25.80;;;21.87;;
10403;SDS011;5248;47.374;8.486;2023-03-01T06:06:15;26.47;;;22.27;;
10403;SDS011;5248;47.374;8.486;2023-03-01T06:08:42;29.03;;;21.70;;
10403;SDS011;5248;47.374;8.486;2023-03-01T06:11:08;28.20;;;22.40;;
10403;SDS011;5248;47.374;8.486;2023-03-01T06:13:35;24.83;;;21.03;;
10403;SDS011;5248;47.374;8.486;2023-03-01T06:16:04;27.90;;;22.40;;
10403;SDS011;5248;47.374;8.486;2023-03-01T06:18:31;25.33;;;21.03;;
10403;SDS011;5248;47.374;8.486;2023-03-01T06:20:57;26.70;;;21.17;;
10403;SDS011;5248;47.374;8.486;2023-03-01T06:23:26;27.33;;;22.20;;
10403;SDS011;5248;47.374;8.486;2023-03-01T06:25:53;25.97;;;21.60;;
10403;SDS011;5248;47.374;8.486;2023-03-01T06:28:19;28.23;;;22.17;;
10403;SDS011;5248;47.374;8.486;2023-03-01T06:30:47;27.63;;;23.43;;
10403;SDS011;5248;47.374;8.486;2023-03-01T06:33:14;31.37;;;22.70;;
10403;SDS011;5248;47.374;8.486;2023-03-01T06:35:40;27.50;;;21.73;;
10403;SDS011;5248;47.374;8.486;2023-03-01T06:38:07;26.00;;;22.10;;
10403;SDS011;5248;47.374;8.486;2023-03-01T06:40:36;29.57;;;21.63;;
10403;SDS011;5248;47.374;8.486;2023-03-01T06:43:03;27.70;;;22.90;;
10403;SDS011;5248;47.374;8.486;2023-03-01T06:45:29;28.93;;;22.57;;
10403;SDS011;5248;47.374;8.486;2023-03-01T06:48:02;28.07;;;21.30;;
10403;SDS011;5248;47.374;8.486;2023-03-01T06:50:30;27.63;;;21.97;;
10403;SDS011;5248;47.374;8.486;2023-03-01T06:52:57;30.07;;;22.27;;
10403;SDS011;5248;47.374;8.486;2023-03-01T06:55:25;29.50;;;22.23;;
10403;SDS011;5248;47.374;8.486;2023-03-01T06:57:55;29.00;;;21.43;;
10403;SDS011;5248;47.374;8.486;2023-03-01T07:00:22;26.47;;;21.60;;
10403;SDS011;5248;47.374;8.486;2023-03-01T07:02:50;26.37;;;21.53;;
10403;SDS011;5248;47.374;8.486;2023-03-01T07:05:18;28.37;;;21.77;;
10403;SDS011;5248;47.374;8.486;2023-03-01T07:07:44;29.63;;;22.03;;
10403;SDS011;5248;47.374;8.486;2023-03-01T07:10:11;28.93;;;21.47;;
10403;SDS011;5248;47.374;8.486;2023-03-01T07:12:38;29.73;;;22.73;;
10403;SDS011;5248;47.374;8.486;2023-03-01T07:15:09;28.07;;;22.07;;
10403;SDS011;5248;47.374;8.486;2023-03-01T07:17:36;27.53;;;21.70;;
10403;SDS011;5248;47.374;8.486;2023-03-01T07:20:05;28.00;;;21.40;;
10403;SDS011;5248;47.374;8.486;2023-03-01T07:22:34;27.70;;;21.90;;
10403;SDS011;5248;47.374;8.486;2023-03-01T07:25:01;28.23;;;20.50;;
10403;SDS011;5248;47.374;8.486;2023-03-01T07:27:28;28.03;;;21.83;;
10403;SDS011;5248;47.374;8.486;2023-03-01T07:29:54;25.83;;;20.57;;
10403;SDS011;5248;47.374;8.486;2023-03-01T07:32:23;25.00;;;20.93;;
10403;SDS011;5248;47.374;8.486;2023-03-01T07:34:50;25.70;;;20.70;;
10403;SDS011;5248;47.374;8.486;2023-03-01T07:37:17;28.00;;;21.60;;
10403;SDS011;5248;47.374;8.486;2023-03-01T07:39:43;26.97;;;20.97;;
10403;SDS011;5248;47.374;8.486;2023-03-01T07:42:10;27.43;;;21.10;;
10403;SDS011;5248;47.374;8.486;2023-03-01T07:44:36;25.77;;;20.77;;
10403;SDS011;5248;47.374;8.486;2023-03-01T07:47:04;27.43;;;21.77;;
10403;SDS011;5248;47.374;8.486;2023-03-01T07:49:32;26.90;;;20.33;;
10403;SDS011;5248;47.374;8.486;2023-03-01T07:52:00;24.37;;;20.13;;
10403;SDS011;5248;47.374;8.486;2023-03-01T07:54:26;25.40;;;20.17;;
10403;SDS011;5248;47.374;8.486;2023-03-01T07:56:53;30.40;;;21.83;;
10403;SDS011;5248;47.374;8.486;2023-03-01T07:59:20;27.10;;;20.97;;
10403;SDS011;5248;47.374;8.486;2023-03-01T08:01:48;29.50;;;21.03;;
10403;SDS011;5248;47.374;8.486;2023-03-01T08:04:15;26.97;;;20.73;;
10403;SDS011;5248;47.374;8.486;2023-03-01T08:06:43;27.70;;;21.47;;
10403;SDS011;5248;47.374;8.486;2023-03-01T08:09:09;26.07;;;20.80;;
10403;SDS011;5248;47.374;8.486;2023-03-01T08:11:37;25.30;;;19.93;;
10403;SDS011;5248;47.374;8.486;2023-03-01T08:14:06;28.87;;;21.67;;
10403;SDS011;5248;47.374;8.486;2023-03-01T08:16:34;26.37;;;21.30;;
10403;SDS011;5248;47.374;8.486;2023-03-01T08:19:03;26.83;;;20.43;;
10403;SDS011;5248;47.374;8.486;2023-03-01T08:21:30;24.47;;;19.33;;
10403;SDS011;5248;47.374;8.486;2023-03-01T08:23:58;27.30;;;21.87;;
10403;SDS011;5248;47.374;8.486;2023-03-01T08:26:25;28.10;;;20.87;;
10403;SDS011;5248;47.374;8.486;2023-03-01T08:28:51;27.00;;;20.20;;
10403;SDS011;5248;47.374;8.486;2023-03-01T08:31:19;26.73;;;21.13;;
10403;SDS011;5248;47.374;8.486;2023-03-01T08:33:50;28.43;;;21.83;;
10403;SDS011;5248;47.374;8.486;2023-03-01T08:36:20;28.63;;;21.90;;
10403;SDS011;5248;47.374;8.486;2023-03-01T08:38:48;25.73;;;20.63;;
10403;SDS011;5248;47.374;8.486;2023-03-01T08:41:16;26.03;;;20.80;;
10403;SDS011;5248;47.374;8.486;2023-03-01T08:43:44;25.57;;;20.00;;
10403;SDS011;5248;47.374;8.486;2023-03-01T08:46:11;26.30;;;20.57;;
10403;SDS011;5248;47.374;8.486;2023-03-01T08:48:38;27.27;;;22.07;;
10403;SDS011;5248;47.374;8.486;2023-03-01T08:51:08;28.60;;;21.40;;
10403;SDS011;5248;47.374;8.486;2023-03-01T08:53:36;27.13;;;20.13;;
10403;SDS011;5248;47.374;8.486;2023-03-01T08:56:04;28.57;;;20.90;;
10403;SDS011;5248;47.374;8.486;2023-03-01T08:58:32;29.40;;;20.27;;
10403;SDS011;5248;47.374;8.486;2023-03-01T09:00:58;26.33;;;20.37;;
10403;SDS011;5248;47.374;8.486;2023-03-01T09:03:25;28.23;;;20.97;;
10403;SDS011;5248;47.374;8.486;2023-03-01T09:05:52;27.77;;;20.83;;
10403;SDS011;5248;47.374;8.486;2023-03-01T09:08:19;26.50;;;21.07;;
10403;SDS011;5248;47.374;8.486;2023-03-01T09:10:48;26.07;;;20.37;;
10403;SDS011;5248;47.374;8.486;2023-03-01T09:13:15;26.00;;;20.50;;
10403;SDS011;5248;47.374;8.486;2023-03-01T09:15:44;26.50;;;20.43;;
10403;SDS011;5248;47.374;8.486;2023-03-01T09:18:11;30.20;;;20.33;;
10403;SDS011;5248;47.374;8.486;2023-03-01T09:20:38;28.03;;;21.00;;
10403;SDS011;5248;47.374;8.486;2023-03-01T09:23:06;24.50;;;18.30;;
10403;SDS011;5248;47.374;8.486;2023-03-01T09:25:33;30.70;;;21.97;;
10403;SDS011;5248;47.374;8.486;2023-03-01T09:28:01;28.33;;;22.17;;
10403;SDS011;5248;47.374;8.486;2023-03-01T09:30:29;23.60;;;19.03;;
10403;SDS011;5248;47.374;8.486;2023-03-01T09:32:57;28.80;;;21.07;;
10403;SDS011;5248;47.374;8.486;2023-03-01T09:35:24;25.43;;;20.90;;
10403;SDS011;5248;47.374;8.486;2023-03-01T09:37:50;25.10;;;20.37;;
10403;SDS011;5248;47.374;8.486;2023-03-01T09:40:18;30.10;;;20.93;;
10403;SDS011;5248;47.374;8.486;2023-03-01T09:42:47;28.70;;;21.77;;
10403;SDS011;5248;47.374;8.486;2023-03-01T09:45:20;29.17;;;20.60;;
10403;SDS011;5248;47.374;8.486;2023-03-01T09:47:54;30.03;;;21.23;;
10403;SDS011;5248;47.374;8.486;2023-03-01T09:50:23;26.53;;;20.83;;
10403;SDS011;5248;47.374;8.486;2023-03-01T09:52:54;30.30;;;21.30;;
10403;SDS011;5248;47.374;8.486;2023-03-01T09:55:27;28.03;;;20.40;;
10403;SDS011;5248;47.374;8.486;2023-03-01T09:57:59;27.10;;;20.70;;
10403;SDS011;5248;47.374;8.486;2023-03-01T10:00:33;26.23;;;21.00;;
10403;SDS011;5248;47.374;8.486;2023-03-01T10:03:07;27.93;;;20.53;;
10403;SDS011;5248;47.374;8.486;2023-03-01T10:05:41;26.77;;;21.33;;
10403;SDS011;5248;47.374;8.486;2023-03-01T10:11:17;24.47;;;19.13;;
10403;SDS011;5248;47.374;8.486;2023-03-01T10:13:50;27.73;;;19.97;;
10403;SDS011;5248;47.374;8.486;2023-03-01T10:16:21;29.20;;;20.93;;
10403;SDS011;5248;47.374;8.486;2023-03-01T10:18:51;26.07;;;19.43;;
10403;SDS011;5248;47.374;8.486;2023-03-01T10:21:21;26.70;;;18.90;;
10403;SDS011;5248;47.374;8.486;2023-03-01T10:23:49;28.17;;;19.13;;
10403;SDS011;5248;47.374;8.486;2023-03-01T10:26:23;26.30;;;19.40;;
10403;SDS011;5248;47.374;8.486;2023-03-01T10:29:02;28.20;;;19.63;;
10403;SDS011;5248;47.374;8.486;2023-03-01T10:31:33;25.13;;;19.53;;
10403;SDS011;5248;47.374;8.486;2023-03-01T10:34:07;24.70;;;18.83;;
10403;SDS011;5248;47.374;8.486;2023-03-01T10:36:39;25.63;;;18.63;;
10403;SDS011;5248;47.374;8.486;2023-03-01T10:39:11;27.27;;;19.33;;
10403;SDS011;5248;47.374;8.486;2023-03-01T10:41:57;28.03;;;20.07;;
10403;SDS011;5248;47.374;8.486;2023-03-01T10:44:35;25.07;;;18.60;;
10403;SDS011;5248;47.374;8.486;2023-03-01T10:47:11;24.90;;;18.87;;
10403;SDS011;5248;47.374;8.486;2023-03-01T10:49:46;24.87;;;19.13;;
10403;SDS011;5248;47.374;8.486;2023-03-01T10:52:20;24.27;;;18.37;;
10403;SDS011;5248;47.374;8.486;2023-03-01T10:54:53;28.27;;;18.73;;
10403;SDS011;5248;47.374;8.486;2023-03-01T10:57:24;25.93;;;18.83;;
10403;SDS011;5248;47.374;8.486;2023-03-01T11:00:00;24.63;;;18.97;;
10403;SDS011;5248;47.374;8.486;2023-03-01T11:02:40;25.40;;;19.00;;
10403;SDS011;5248;47.374;8.486;2023-03-01T11:05:15;24.63;;;19.00;;
10403;SDS011;5248;47.374;8.486;2023-03-01T11:07:48;24.67;;;19.33;;
10403;SDS011;5248;47.374;8.486;2023-03-01T11:10:17;25.83;;;18.93;;
10403;SDS011;5248;47.374;8.486;2023-03-01T11:12:44;27.90;;;19.13;;
10403;SDS011;5248;47.374;8.486;2023-03-01T11:15:19;26.03;;;19.53;;
10403;SDS011;5248;47.374;8.486;2023-03-01T11:17:50;23.77;;;18.77;;
10403;SDS011;5248;47.374;8.486;2023-03-01T11:20:19;24.07;;;17.97;;
10403;SDS011;5248;47.374;8.486;2023-03-01T11:22:53;24.23;;;18.50;;
10403;SDS011;5248;47.374;8.486;2023-03-01T11:25:23;26.03;;;19.17;;
10403;SDS011;5248;47.374;8.486;2023-03-01T11:27:50;25.57;;;18.17;;
10403;SDS011;5248;47.374;8.486;2023-03-01T11:30:20;24.60;;;18.37;;
10403;SDS011;5248;47.374;8.486;2023-03-01T11:32:51;23.83;;;18.07;;
10403;SDS011;5248;47.374;8.486;2023-03-01T11:35:21;23.17;;;17.83;;
10403;SDS011;5248;47.374;8.486;2023-03-01T11:37:55;27.17;;;19.23;;
10403;SDS011;5248;47.374;8.486;2023-03-01T11:40:27;23.33;;;17.63;;
10403;SDS011;5248;47.374;8.486;2023-03-01T11:42:59;24.53;;;18.90;;
10403;SDS011;5248;47.374;8.486;2023-03-01T11:45:38;25.20;;;18.93;;
10403;SDS011;5248;47.374;8.486;2023-03-01T11:48:23;23.27;;;18.20;;
10403;SDS011;5248;47.374;8.486;2023-03-01T11:50:58;25.23;;;18.73;;
10403;SDS011;5248;47.374;8.486;2023-03-01T11:53:33;24.90;;;19.23;;
10403;SDS011;5248;47.374;8.486;2023-03-01T11:56:12;22.27;;;18.63;;
10403;SDS011;5248;47.374;8.486;2023-03-01T11:58:54;24.83;;;19.10;;
10403;SDS011;5248;47.374;8.486;2023-03-01T12:01:52;24.90;;;19.33;;
10403;SDS011;5248;47.374;8.486;2023-03-01T12:07:20;24.53;;;18.40;;
10403;SDS011;5248;47.374;8.486;2023-03-01T12:10:04;26.77;;;18.83;;
10403;SDS011;5248;47.374;8.486;2023-03-01T12:12:44;24.83;;;18.43;;
10403;SDS011;5248;47.374;8.486;2023-03-01T12:20:58;23.87;;;17.90;;
10403;SDS011;5248;47.374;8.486;2023-03-01T12:23:40;24.70;;;19.10;;
10403;SDS011;5248;47.374;8.486;2023-03-01T12:26:20;23.40;;;18.77;;
10403;SDS011;5248;47.374;8.486;2023-03-01T12:28:55;26.30;;;19.27;;
10403;SDS011;5248;47.374;8.486;2023-03-01T12:31:41;25.43;;;19.57;;
10403;SDS011;5248;47.374;8.486;2023-03-01T12:34:18;28.33;;;19.90;;
10403;SDS011;5248;47.374;8.486;2023-03-01T12:37:00;27.93;;;19.13;;
10403;SDS011;5248;47.374;8.486;2023-03-01T12:39:38;25.23;;;18.80;;
10403;SDS011;5248;47.374;8.486;2023-03-01T12:42:18;26.90;;;19.60;;
10403;SDS011;5248;47.374;8.486;2023-03-01T12:45:02;27.30;;;20.33;;
10403;SDS011;5248;47.374;8.486;2023-03-01T12:47:42;25.70;;;19.97;;
10403;SDS011;5248;47.374;8.486;2023-03-01T12:50:19;26.07;;;20.57;;
10403;SDS011;5248;47.374;8.486;2023-03-01T12:52:49;23.90;;;18.97;;
10403;SDS011;5248;47.374;8.486;2023-03-01T12:55:26;26.00;;;20.17;;
10403;SDS011;5248;47.374;8.486;2023-03-01T12:57:59;26.67;;;20.07;;
10403;SDS011;5248;47.374;8.486;2023-03-01T13:00:31;25.30;;;20.47;;
10403;SDS011;5248;47.374;8.486;2023-03-01T13:03:09;31.73;;;21.47;;
10403;SDS011;5248;47.374;8.486;2023-03-01T13:05:45;26.47;;;20.50;;
10403;SDS011;5248;47.374;8.486;2023-03-01T13:08:26;26.40;;;21.00;;
10403;SDS011;5248;47.374;8.486;2023-03-01T13:10:56;28.47;;;20.20;;
10403;SDS011;5248;47.374;8.486;2023-03-01T13:13:30;26.30;;;20.67;;
10403;SDS011;5248;47.374;8.486;2023-03-01T13:15:58;29.33;;;21.20;;
10403;SDS011;5248;47.374;8.486;2023-03-01T13:19:08;25.90;;;19.53;;
10403;SDS011;5248;47.374;8.486;2023-03-01T13:21:39;28.07;;;20.40;;
10403;SDS011;5248;47.374;8.486;2023-03-01T13:27:09;23.10;;;19.57;;
10403;SDS011;5248;47.374;8.486;2023-03-01T13:29:50;24.80;;;20.33;;
10403;SDS011;5248;47.374;8.486;2023-03-01T13:32:21;26.47;;;20.80;;
10403;SDS011;5248;47.374;8.486;2023-03-01T13:34:53;23.90;;;19.23;;
10403;SDS011;5248;47.374;8.486;2023-03-01T13:37:22;24.60;;;20.40;;
10403;SDS011;5248;47.374;8.486;2023-03-01T13:39:55;26.83;;;20.73;;
10403;SDS011;5248;47.374;8.486;2023-03-01T13:42:31;24.37;;;20.80;;
10403;SDS011;5248;47.374;8.486;2023-03-01T13:45:17;24.00;;;20.07;;
10403;SDS011;5248;47.374;8.486;2023-03-01T13:47:47;30.83;;;20.93;;
10403;SDS011;5248;47.374;8.486;2023-03-01T13:50:18;24.73;;;19.27;;
10403;SDS011;5248;47.374;8.486;2023-03-01T13:52:59;23.43;;;18.80;;
10403;SDS011;5248;47.374;8.486;2023-03-01T13:55:31;18.77;;;16.13;;
10403;SDS011;5248;47.374;8.486;2023-03-01T13:58:04;25.00;;;20.10;;
10403;SDS011;5248;47.374;8.486;2023-03-01T14:00:41;25.50;;;19.80;;
10403;SDS011;5248;47.374;8.486;2023-03-01T14:03:13;23.67;;;19.03;;
10403;SDS011;5248;47.374;8.486;2023-03-01T14:05:43;23.50;;;19.23;;
10403;SDS011;5248;47.374;8.486;2023-03-01T14:08:21;24.47;;;20.13;;
10403;SDS011;5248;47.374;8.486;2023-03-01T14:10:54;26.97;;;20.53;;
10403;SDS011;5248;47.374;8.486;2023-03-01T14:13:33;24.30;;;19.13;;
10403;SDS011;5248;47.374;8.486;2023-03-01T14:16:14;28.07;;;20.70;;
10403;SDS011;5248;47.374;8.486;2023-03-01T14:18:51;27.93;;;20.40;;
10403;SDS011;5248;47.374;8.486;2023-03-01T14:21:21;23.93;;;19.43;;
10403;SDS011;5248;47.374;8.486;2023-03-01T14:23:50;24.67;;;18.77;;
10403;SDS011;5248;47.374;8.486;2023-03-01T14:26:19;25.27;;;19.50;;
10403;SDS011;5248;47.374;8.486;2023-03-01T14:28:47;28.53;;;20.10;;
10403;SDS011;5248;47.374;8.486;2023-03-01T14:34:03;24.07;;;19.57;;
10403;SDS011;5248;47.374;8.486;2023-03-01T14:36:31;24.47;;;19.77;;
10403;SDS011;5248;47.374;8.486;2023-03-01T14:39:00;23.90;;;19.93;;
10403;SDS011;5248;47.374;8.486;2023-03-01T14:41:30;24.03;;;19.03;;
10403;SDS011;5248;47.374;8.486;2023-03-01T14:44:00;26.60;;;19.63;;
10403;SDS011;5248;47.374;8.486;2023-03-01T14:46:28;27.80;;;19.10;;
10403;SDS011;5248;47.374;8.486;2023-03-01T14:49:01;26.67;;;19.80;;
10403;SDS011;5248;47.374;8.486;2023-03-01T14:51:28;25.53;;;20.33;;
10403;SDS011;5248;47.374;8.486;2023-03-01T14:53:56;22.90;;;19.13;;
10403;SDS011;5248;47.374;8.486;2023-03-01T14:56:23;25.43;;;20.60;;
10403;SDS011;5248;47.374;8.486;2023-03-01T14:58:51;22.33;;;19.33;;
10403;SDS011;5248;47.374;8.486;2023-03-01T15:01:18;24.67;;;19.67;;
10403;SDS011;5248;47.374;8.486;2023-03-01T15:03:45;23.60;;;19.60;;
10403;SDS011;5248;47.374;8.486;2023-03-01T15:06:16;24.40;;;19.57;;
10403;SDS011;5248;47.374;8.486;2023-03-01T15:08:44;23.97;;;19.10;;
10403;SDS011;5248;47.374;8.486;2023-03-01T15:11:17;25.33;;;20.23;;